This is the latest recevied weather packets stored in our database for station/object VE3DVC. If no packets are shown the sender has not sent any weather packets the latest 10 day(s).
| Time | Temp. | Humidity | Pressure | Rain* | Wind** | Luminosity | Snow |
|---|---|---|---|---|---|---|---|
| 1777994570 | 16.67° C | 80% | 1004 hPa | 0 mm | - | - | - |
| 1777993850 | 16.67° C | 80% | 1004.3 hPa | 0 mm | - | - | - |
| 1777993130 | 16.67° C | 78% | 1004.4 hPa | 0 mm | - | - | - |
| 1777992411 | 17.22° C | 79% | 1004.2 hPa | 0 mm | - | - | - |
| 1777991690 | 17.22° C | 78% | 1003.9 hPa | 0 mm | - | - | - |
| 1777990970 | 16.67° C | 79% | 1003 hPa | 0 mm | - | - | - |
| 1777989530 | 16.11° C | 80% | 1002.6 hPa | 0 mm | - | - | - |
| 1777988485 | 16.11° C | 80% | 1003.1 hPa | 0 mm | - | - | - |
| 1777987766 | 15.56° C | 82% | 1003.2 hPa | 0 mm | - | - | - |
| 1777986326 | 15.56° C | 82% | 1003 hPa | 0 mm | - | - | - |
| 1777985606 | 15° C | 83% | 1002.8 hPa | 0 mm | - | - | - |
| 1777984886 | 15° C | 84% | 1002.4 hPa | 0 mm | - | - | - |
| 1777984166 | 14.44° C | 86% | 1002.4 hPa | 0 mm | - | - | - |
| 1777983447 | 14.44° C | 87% | 1002.4 hPa | 0 mm | - | - | - |
| 1777982726 | 13.89° C | 89% | 1002.5 hPa | 0 mm | - | - | - |
| 1777981719 | 13.89° C | 90% | 1002.4 hPa | 0 mm | - | - | - |
| 1777980999 | 13.89° C | 89% | 1002.1 hPa | 0 mm | - | - | - |
| 1777980279 | 13.89° C | 86% | 1001.8 hPa | 0 mm | - | - | - |
| 1777979559 | 15° C | 82% | 1001.9 hPa | 0 mm | - | - | - |
| 1777978840 | 15° C | 82% | 1001.4 hPa | 0 mm | - | - | - |
| 1777978120 | 14.44° C | 83% | 1001.4 hPa | 0 mm | - | - | - |
| 1777977399 | 14.44° C | 86% | 1001.3 hPa | 0 mm | - | - | - |
| 1777975959 | 13.89° C | 86% | 1001 hPa | 0.25 mm | - | - | - |
| 1777975239 | 13.89° C | 87% | 1000.9 hPa | 0 mm | - | - | - |
| 1777974207 | 13.89° C | 87% | 1000.5 hPa | 0 mm | - | - | - |
* Rain latest hour (hover to see other rain measurements)
** Current wind speed in m/s (hover to see current wind gust speed)